createdAt,value
2019-03-26T00:00:32.662Z,989.1
2019-03-26T00:01:33.908Z,989
2019-03-26T00:02:35.428Z,989.1
2019-03-26T00:03:38.821Z,989.1
2019-03-26T00:04:40.134Z,989.2
2019-03-26T00:05:41.388Z,989.2
2019-03-26T00:06:42.661Z,989
2019-03-26T00:07:45.122Z,989.1
2019-03-26T00:08:46.357Z,989
2019-03-26T00:09:50.096Z,989
2019-03-26T00:10:51.331Z,989.1
2019-03-26T00:11:52.615Z,989
2019-03-26T00:12:53.850Z,988.9
2019-03-26T00:13:58.228Z,989
2019-03-26T00:14:59.943Z,989.1
2019-03-26T00:16:01.457Z,989.1
2019-03-26T00:17:02.697Z,989.1
2019-03-26T00:18:03.956Z,989.2
2019-03-26T00:19:05.510Z,989.2
2019-03-26T00:20:07.412Z,989
2019-03-26T00:21:09.417Z,989.2
2019-03-26T00:22:11.289Z,989.1
2019-03-26T00:23:12.527Z,989.2
2019-03-26T00:24:13.743Z,989
2019-03-26T00:25:14.991Z,989.2
2019-03-26T00:26:16.207Z,989.1
2019-03-26T00:27:17.433Z,989.1
2019-03-26T00:28:18.889Z,989.1
2019-03-26T00:29:20.125Z,989.2
2019-03-26T00:30:21.403Z,989.1
2019-03-26T00:31:22.621Z,989.1
2019-03-26T00:32:24.507Z,989.1
2019-03-26T00:33:37.629Z,989.2
2019-03-26T00:34:38.988Z,989.2
2019-03-26T00:35:40.323Z,989.3
2019-03-26T00:36:41.544Z,989.2
2019-03-26T00:37:42.783Z,989.1
2019-03-26T00:38:45.401Z,989.2
2019-03-26T00:39:46.819Z,989.2
2019-03-26T00:40:48.097Z,989.2
2019-03-26T00:41:49.318Z,989.2
2019-03-26T00:42:50.538Z,989.2
2019-03-26T00:43:51.797Z,989.1
2019-03-26T00:44:55.335Z,989.1
2019-03-26T00:45:56.603Z,989.2
2019-03-26T00:46:57.826Z,989.2
2019-03-26T00:47:59.039Z,989.2
2019-03-26T00:49:00.258Z,989.2
2019-03-26T00:50:01.497Z,989.3
2019-03-26T00:51:02.802Z,989.2
2019-03-26T00:52:04.073Z,989.2
2019-03-26T00:53:05.294Z,989.2
2019-03-26T00:54:06.512Z,989.1
2019-03-26T00:55:07.709Z,989.2
2019-03-26T00:56:08.947Z,989.2
2019-03-26T00:57:11.383Z,989.3
2019-03-26T00:58:15.029Z,989.4
2019-03-26T00:59:16.248Z,989.3
2019-03-26T01:00:17.851Z,989.3
2019-03-26T01:01:19.130Z,989.3
2019-03-26T01:02:20.352Z,989.3
2019-03-26T01:03:21.635Z,989.4
2019-03-26T01:04:33.489Z,989.3
2019-03-26T01:05:34.877Z,989.3
2019-03-26T01:06:36.476Z,989.4
2019-03-26T01:07:37.689Z,989.4
2019-03-26T01:08:38.900Z,989.2
2019-03-26T01:09:40.137Z,989.2
2019-03-26T01:11:58.068Z,989.3
2019-03-26T01:12:59.328Z,989.4
2019-03-26T01:14:01.906Z,989.4
2019-03-26T01:15:04.222Z,989.3
2019-03-26T01:16:05.436Z,989.4
2019-03-26T01:17:06.674Z,989.4
2019-03-26T01:18:07.897Z,989.5
2019-03-26T01:19:09.126Z,989.5
2019-03-26T01:20:10.355Z,989.3
2019-03-26T01:21:11.586Z,989.5
2019-03-26T01:22:13.212Z,989.5
2019-03-26T01:23:14.425Z,989.4
2019-03-26T01:24:15.652Z,989.6
2019-03-26T01:25:16.872Z,989.6
2019-03-26T01:26:18.104Z,989.7
2019-03-26T01:27:19.378Z,989.5
2019-03-26T01:28:20.588Z,989.4
2019-03-26T01:29:21.806Z,989.4
2019-03-26T01:30:23.018Z,989.5
2019-03-26T01:31:24.230Z,989.7
2019-03-26T01:32:25.480Z,989.7
2019-03-26T01:33:26.726Z,989.5
2019-03-26T01:34:28.450Z,989.7
2019-03-26T01:35:29.671Z,989.7
2019-03-26T01:36:30.883Z,989.7
2019-03-26T01:37:32.164Z,989.7
2019-03-26T01:38:33.380Z,989.8
2019-03-26T01:39:34.603Z,989.7
2019-03-26T01:40:35.826Z,989.8
2019-03-26T01:41:37.052Z,989.7
2019-03-26T01:42:38.318Z,989.7
2019-03-26T01:43:39.748Z,989.7
2019-03-26T01:44:40.984Z,989.8
2019-03-26T01:45:42.210Z,989.8
2019-03-26T01:46:43.418Z,989.7
2019-03-26T01:47:44.666Z,989.6
2019-03-26T01:48:45.896Z,989.7
2019-03-26T01:49:47.155Z,989.7
2019-03-26T01:50:48.408Z,989.6
2019-03-26T01:51:49.619Z,989.6
2019-03-26T01:52:50.892Z,989.5
2019-03-26T01:53:52.113Z,989.6
2019-03-26T01:54:53.340Z,989.6
2019-03-26T01:55:54.562Z,989.5
2019-03-26T01:56:55.778Z,989.5
2019-03-26T01:57:57.033Z,989.7
2019-03-26T01:58:58.278Z,989.7
2019-03-26T01:59:59.514Z,989.5
2019-03-26T02:01:00.742Z,989.5
2019-03-26T02:02:01.960Z,989.5
2019-03-26T02:03:03.215Z,989.6
2019-03-26T02:04:04.430Z,989.8
2019-03-26T02:05:05.674Z,989.7
2019-03-26T02:06:06.923Z,989.6
2019-03-26T02:07:08.138Z,989.8
2019-03-26T02:08:09.433Z,989.7
2019-03-26T02:09:10.640Z,989.7
2019-03-26T02:10:11.856Z,989.7
2019-03-26T02:11:13.179Z,989.6
2019-03-26T02:12:14.404Z,989.8
2019-03-26T02:13:15.651Z,989.9
2019-03-26T02:14:16.858Z,989.8
2019-03-26T02:15:18.088Z,989.7
2019-03-26T02:16:19.306Z,989.6
2019-03-26T02:17:20.518Z,989.6
2019-03-26T02:18:21.786Z,989.5
2019-03-26T02:19:23.005Z,989.6
2019-03-26T02:20:24.228Z,989.6
2019-03-26T02:21:25.457Z,989.6
2019-03-26T02:22:26.687Z,989.7
2019-03-26T02:23:28.377Z,989.5
2019-03-26T02:24:29.599Z,989.6
2019-03-26T02:25:30.811Z,989.8
2019-03-26T02:26:32.059Z,989.8
2019-03-26T02:27:33.282Z,989.6
2019-03-26T02:28:34.546Z,989.7
2019-03-26T02:29:35.769Z,989.6
2019-03-26T02:30:37.010Z,989.6
2019-03-26T02:31:38.234Z,989.6
2019-03-26T02:32:39.449Z,989.6
2019-03-26T02:33:40.692Z,989.6
2019-03-26T02:34:41.913Z,989.6
2019-03-26T02:35:43.146Z,989.8
2019-03-26T02:36:44.365Z,989.8
2019-03-26T02:37:45.590Z,989.9
2019-03-26T02:38:47.330Z,989.9
2019-03-26T02:39:48.560Z,989.8
2019-03-26T02:40:49.808Z,989.7
2019-03-26T02:41:51.044Z,989.8
2019-03-26T02:42:52.250Z,989.9
2019-03-26T02:43:53.627Z,989.9
2019-03-26T02:44:54.888Z,989.8
2019-03-26T02:45:56.113Z,989.8
2019-03-26T02:46:58.233Z,989.7
2019-03-26T02:47:59.473Z,989.7
2019-03-26T02:49:00.716Z,989.7
2019-03-26T02:50:01.947Z,989.7
2019-03-26T02:51:03.170Z,989.7
2019-03-26T02:52:04.407Z,989.9
2019-03-26T02:53:09.408Z,989.8
2019-03-26T02:54:10.798Z,989.8
2019-03-26T02:55:12.045Z,989.8
2019-03-26T02:56:13.394Z,989.9
2019-03-26T02:57:14.748Z,989.8
2019-03-26T02:58:15.997Z,989.8
2019-03-26T02:59:17.243Z,989.8
2019-03-26T03:00:18.458Z,989.6
2019-03-26T03:01:19.689Z,989.7
2019-03-26T03:02:20.910Z,989.8
2019-03-26T03:03:22.154Z,989.8
2019-03-26T03:04:23.436Z,989.8
2019-03-26T03:05:36.314Z,989.8
2019-03-26T03:06:37.721Z,989.7
2019-03-26T03:07:38.994Z,989.9
2019-03-26T03:08:40.205Z,989.7
2019-03-26T03:09:41.913Z,989.7
2019-03-26T03:10:43.259Z,989.8
2019-03-26T03:11:44.505Z,989.9
2019-03-26T03:12:45.754Z,989.9
2019-03-26T03:13:46.989Z,989.9
2019-03-26T03:14:48.496Z,989.8
2019-03-26T03:15:49.745Z,989.8
2019-03-26T03:16:50.979Z,989.6
2019-03-26T03:17:52.194Z,989.9
2019-03-26T03:18:53.443Z,989.8
2019-03-26T03:19:54.799Z,989.7
2019-03-26T03:20:56.021Z,989.8
2019-03-26T03:21:57.273Z,989.9
2019-03-26T03:22:58.753Z,989.7
2019-03-26T03:24:00.017Z,989.8
2019-03-26T03:25:01.327Z,990
2019-03-26T03:26:02.551Z,989.8
2019-03-26T03:27:03.854Z,989.7
2019-03-26T03:28:05.120Z,989.7
2019-03-26T03:29:06.341Z,989.8
2019-03-26T03:30:07.916Z,989.9
2019-03-26T03:31:11.255Z,990
2019-03-26T03:32:12.794Z,990
2019-03-26T03:33:14.032Z,989.8
2019-03-26T03:34:15.300Z,989.9
2019-03-26T03:35:16.593Z,989.9
2019-03-26T03:36:17.813Z,989.8
2019-03-26T03:37:19.031Z,989.8
2019-03-26T03:38:20.274Z,989.9
2019-03-26T03:39:21.505Z,990
2019-03-26T03:40:23.167Z,990
2019-03-26T03:41:24.413Z,989.8
2019-03-26T03:42:25.655Z,989.7
2019-03-26T03:43:26.869Z,989.9
2019-03-26T03:44:28.131Z,990
2019-03-26T03:45:29.423Z,990
2019-03-26T03:46:30.690Z,989.8
2019-03-26T03:47:31.951Z,990
2019-03-26T03:48:33.202Z,990
2019-03-26T03:49:34.426Z,990
2019-03-26T03:50:35.690Z,989.9
2019-03-26T03:51:36.924Z,989.9
2019-03-26T03:52:38.153Z,989.9
2019-03-26T03:53:39.380Z,990
2019-03-26T03:54:40.606Z,990
2019-03-26T03:55:41.881Z,990.1
2019-03-26T03:56:43.135Z,990
2019-03-26T03:57:44.355Z,990.1
2019-03-26T03:58:45.581Z,990.1
2019-03-26T03:59:46.804Z,990.1
2019-03-26T04:00:48.097Z,990
2019-03-26T04:01:49.305Z,990.1
2019-03-26T04:02:50.532Z,990
2019-03-26T04:03:51.756Z,990.2
2019-03-26T04:04:52.994Z,990.3
2019-03-26T04:06:10.317Z,990.3
2019-03-26T04:07:11.751Z,990.2
2019-03-26T04:08:13.107Z,990.3
2019-03-26T04:09:14.346Z,990.2
2019-03-26T04:10:15.603Z,990.3
2019-03-26T04:11:16.904Z,990.1
2019-03-26T04:12:18.128Z,990.2
2019-03-26T04:13:19.351Z,990.1
2019-03-26T04:14:20.564Z,990.1
2019-03-26T04:15:21.796Z,990.2
2019-03-26T04:16:23.087Z,990.1
2019-03-26T04:17:24.304Z,990
2019-03-26T04:18:25.542Z,990.2
2019-03-26T04:19:26.806Z,990.2
2019-03-26T04:20:28.052Z,990.1
2019-03-26T04:21:29.286Z,990.2
2019-03-26T04:22:30.516Z,990.1
2019-03-26T04:23:31.760Z,990.1
2019-03-26T04:24:32.998Z,990.2
2019-03-26T04:25:34.378Z,990.2
2019-03-26T04:26:35.781Z,990.2
2019-03-26T04:27:37.010Z,990.1
2019-03-26T04:28:38.240Z,990.3
2019-03-26T04:29:39.484Z,990.2
2019-03-26T04:30:40.745Z,990.3
2019-03-26T04:31:42.046Z,990.2
2019-03-26T04:32:43.289Z,990.2
2019-03-26T04:33:45.600Z,990.2
2019-03-26T04:34:46.875Z,990.3
2019-03-26T04:35:48.135Z,990.2
2019-03-26T04:36:49.445Z,989.9
2019-03-26T04:37:50.734Z,990.1
2019-03-26T04:38:51.985Z,990.1
2019-03-26T04:39:53.273Z,990.2
2019-03-26T04:40:54.524Z,990.2
2019-03-26T04:41:56.156Z,990
2019-03-26T04:42:57.412Z,990.1
2019-03-26T04:43:58.669Z,990.3
2019-03-26T04:44:59.918Z,990.2
2019-03-26T04:46:01.143Z,990.2
2019-03-26T04:47:02.438Z,990.2
2019-03-26T04:48:03.688Z,990.1
2019-03-26T04:49:04.928Z,989.9
2019-03-26T04:50:06.202Z,990.1
2019-03-26T04:51:07.450Z,990
2019-03-26T04:52:08.733Z,990.2
2019-03-26T04:53:09.980Z,990.3
2019-03-26T04:54:11.323Z,990.4
2019-03-26T04:55:12.576Z,990.1
2019-03-26T04:56:13.832Z,990.2
2019-03-26T04:57:15.166Z,990.3
2019-03-26T04:58:16.434Z,990.2
2019-03-26T04:59:17.722Z,990.2
2019-03-26T05:00:19.040Z,990.2
2019-03-26T05:01:20.296Z,990.3
2019-03-26T05:02:21.586Z,990.4
2019-03-26T05:03:22.859Z,990.2
2019-03-26T05:04:24.090Z,990.4
2019-03-26T05:05:25.330Z,990.5
2019-03-26T05:06:38.604Z,990.6
2019-03-26T05:07:39.890Z,990.6
2019-03-26T05:08:41.130Z,990.2
2019-03-26T05:09:42.356Z,990.4
2019-03-26T05:10:43.609Z,990.4
2019-03-26T05:11:47.125Z,990.5
2019-03-26T05:12:48.710Z,990.5
2019-03-26T05:13:49.962Z,990.5
2019-03-26T05:14:51.198Z,990.6
2019-03-26T05:15:52.446Z,990.6
2019-03-26T05:16:53.692Z,990.6
2019-03-26T05:17:57.493Z,990.4
2019-03-26T05:18:58.741Z,990.5
2019-03-26T05:19:59.976Z,990.5
2019-03-26T05:21:01.206Z,990.4
2019-03-26T05:22:02.462Z,990.6
2019-03-26T05:23:03.735Z,990.6
2019-03-26T05:24:05.008Z,990.7
2019-03-26T05:25:06.300Z,990.5
2019-03-26T05:26:07.547Z,990.4
2019-03-26T05:27:08.800Z,990.5
2019-03-26T05:28:10.098Z,990.6
2019-03-26T05:29:11.344Z,990.5
2019-03-26T05:30:13.627Z,990.5
2019-03-26T05:31:14.884Z,990.4
2019-03-26T05:32:16.156Z,990.5
2019-03-26T05:33:17.426Z,990.5
2019-03-26T05:34:18.679Z,990.5
2019-03-26T05:35:19.994Z,990.4
2019-03-26T05:36:21.243Z,990.4
2019-03-26T05:37:22.510Z,990.6
2019-03-26T05:38:23.827Z,990.4
2019-03-26T05:39:25.076Z,990.6
2019-03-26T05:40:26.325Z,990.5
2019-03-26T05:41:27.580Z,990.5
2019-03-26T05:42:28.831Z,990.5
2019-03-26T05:43:30.287Z,990.5
2019-03-26T05:44:31.526Z,990.6
2019-03-26T05:45:32.855Z,990.5
2019-03-26T05:46:36.173Z,990.5
2019-03-26T05:47:37.407Z,990.5
2019-03-26T05:48:38.692Z,990.6
2019-03-26T05:49:39.923Z,990.5
2019-03-26T05:50:41.285Z,990.4
2019-03-26T05:51:42.549Z,990.4
2019-03-26T05:52:43.803Z,990.5
2019-03-26T05:53:45.075Z,990.4
2019-03-26T05:54:46.619Z,990.5
2019-03-26T05:55:47.863Z,990.3
2019-03-26T05:56:52.141Z,990.5
2019-03-26T05:57:53.383Z,990.5
2019-03-26T05:58:56.773Z,990.6
2019-03-26T06:00:11.145Z,990.5
2019-03-26T06:01:12.406Z,990.4
2019-03-26T06:02:17.907Z,990.4
2019-03-26T06:03:20.371Z,990.5
2019-03-26T06:04:23.877Z,990.4
2019-03-26T06:05:27.247Z,990.5
2019-03-26T06:06:28.595Z,990.4
2019-03-26T06:07:32.040Z,990.7
2019-03-26T06:08:33.315Z,990.7
2019-03-26T06:09:34.587Z,990.7
2019-03-26T06:10:38.033Z,990.8
2019-03-26T06:11:39.278Z,990.7
2019-03-26T06:12:40.525Z,990.8
2019-03-26T06:13:41.765Z,990.8
2019-03-26T06:14:43.373Z,990.7
2019-03-26T06:15:44.633Z,990.7
2019-03-26T06:16:45.902Z,990.7
2019-03-26T06:17:49.244Z,990.7
2019-03-26T06:18:50.525Z,990.6
2019-03-26T06:19:51.928Z,990.6
2019-03-26T06:20:53.180Z,990.7
2019-03-26T06:21:54.460Z,990.5
2019-03-26T06:22:56.618Z,990.6
2019-03-26T06:23:58.876Z,990.6
2019-03-26T06:25:00.335Z,990.6
2019-03-26T06:26:01.663Z,990.6
2019-03-26T06:27:02.930Z,990.6
2019-03-26T06:28:04.171Z,990.6
2019-03-26T06:29:05.416Z,990.5
2019-03-26T06:30:06.725Z,990.6
2019-03-26T06:31:07.954Z,990.8
2019-03-26T06:32:09.193Z,990.7
2019-03-26T06:33:10.467Z,990.7
2019-03-26T06:34:11.711Z,990.8
2019-03-26T06:35:13.790Z,990.7
2019-03-26T06:36:15.083Z,990.6
2019-03-26T06:37:19.046Z,990.7
2019-03-26T06:38:20.300Z,990.8
2019-03-26T06:39:21.699Z,990.8
2019-03-26T06:40:23.025Z,990.8
2019-03-26T06:41:24.276Z,990.7
2019-03-26T06:42:25.545Z,990.8
2019-03-26T06:43:26.912Z,990.6
2019-03-26T06:44:28.161Z,990.8
2019-03-26T06:45:29.745Z,990.8
2019-03-26T06:46:31.823Z,990.9
2019-03-26T06:47:33.095Z,990.9
2019-03-26T06:48:34.329Z,990.9
2019-03-26T06:49:35.606Z,990.9
2019-03-26T06:50:36.895Z,990.8
2019-03-26T06:51:38.121Z,990.7
2019-03-26T06:52:39.364Z,990.7
2019-03-26T06:53:40.880Z,990.8
2019-03-26T06:54:42.125Z,990.8
2019-03-26T06:55:43.490Z,990.7
2019-03-26T06:56:44.745Z,990.9
2019-03-26T06:57:45.984Z,990.8
2019-03-26T06:58:47.256Z,990.8
2019-03-26T06:59:48.754Z,990.8
2019-03-26T07:00:57.196Z,991
2019-03-26T07:01:58.450Z,990.9
2019-03-26T07:02:59.704Z,991.2
2019-03-26T07:04:00.949Z,991.2
2019-03-26T07:05:02.528Z,991.3
2019-03-26T07:06:03.817Z,991.4
2019-03-26T07:07:05.053Z,991.4
2019-03-26T07:08:06.308Z,991.3
2019-03-26T07:09:07.551Z,991.3
2019-03-26T07:10:08.819Z,991.3
2019-03-26T07:11:12.452Z,991.3
2019-03-26T07:12:13.740Z,991.3
2019-03-26T07:13:15.302Z,991.3
2019-03-26T07:14:16.556Z,991.4
2019-03-26T07:15:17.818Z,991.4
2019-03-26T07:16:19.494Z,991.4
2019-03-26T07:17:20.763Z,991.4
2019-03-26T07:18:22.014Z,991.4
2019-03-26T07:19:23.262Z,991.5
2019-03-26T07:20:24.751Z,991.5
2019-03-26T07:21:26.280Z,991.5
2019-03-26T07:22:28.710Z,991.5
2019-03-26T07:23:30.229Z,991.4
2019-03-26T07:24:33.096Z,991.4
2019-03-26T07:25:34.356Z,991.4
2019-03-26T07:26:35.672Z,991.4
2019-03-26T07:27:36.934Z,991.4
2019-03-26T07:28:38.474Z,991.5
2019-03-26T07:29:39.730Z,991.4
2019-03-26T07:30:41.004Z,991.5
2019-03-26T07:31:42.307Z,991.3
2019-03-26T07:32:43.677Z,991.4
2019-03-26T07:33:44.926Z,991.5
2019-03-26T07:34:48.610Z,991.5
2019-03-26T07:35:49.852Z,991.5
2019-03-26T07:36:51.313Z,991.6
2019-03-26T07:37:52.560Z,991.6
2019-03-26T07:38:56.252Z,991.6
2019-03-26T07:39:57.534Z,991.6
2019-03-26T07:40:58.807Z,991.6
2019-03-26T07:42:01.350Z,991.6
2019-03-26T07:43:03.838Z,991.5
2019-03-26T07:44:20.184Z,991.6
2019-03-26T07:45:21.853Z,991.6
2019-03-26T07:46:24.266Z,991.6
2019-03-26T07:47:25.588Z,991.6
2019-03-26T07:48:27.262Z,991.6
2019-03-26T07:49:28.516Z,991.5
2019-03-26T07:50:29.742Z,991.6
2019-03-26T07:51:31.970Z,991.6
2019-03-26T07:52:33.254Z,991.6
2019-03-26T07:53:34.844Z,991.7
2019-03-26T07:54:37.123Z,991.6
2019-03-26T07:55:42.483Z,991.7
2019-03-26T07:56:44.964Z,991.6
2019-03-26T07:57:46.380Z,991.7
2019-03-26T07:58:47.638Z,991.7
2019-03-26T07:59:50.928Z,991.7
2019-03-26T08:00:52.165Z,991.7
2019-03-26T08:01:54.452Z,991.7
2019-03-26T08:02:55.765Z,991.7
2019-03-26T08:03:57.332Z,991.7
2019-03-26T08:04:59.252Z,991.7
2019-03-26T08:06:00.508Z,991.6
2019-03-26T08:07:01.778Z,991.7
2019-03-26T08:08:03.088Z,991.7
2019-03-26T08:09:04.350Z,991.7
2019-03-26T08:10:05.858Z,991.6
2019-03-26T08:11:07.396Z,991.6
2019-03-26T08:12:08.682Z,991.5
2019-03-26T08:13:10.011Z,991.5
2019-03-26T08:14:12.444Z,991.4
2019-03-26T08:15:13.710Z,991.4
2019-03-26T08:16:15.000Z,991.4
2019-03-26T08:17:16.581Z,991.4
2019-03-26T08:18:18.334Z,991.3
2019-03-26T08:19:19.589Z,991.4
2019-03-26T08:20:20.826Z,991.4
2019-03-26T08:21:22.080Z,991.3
2019-03-26T08:22:23.890Z,991.3
2019-03-26T08:23:26.652Z,991.3
2019-03-26T08:24:27.926Z,991.3
2019-03-26T08:25:29.209Z,991.4
2019-03-26T08:26:30.438Z,991.3
2019-03-26T08:27:31.684Z,991.3
2019-03-26T08:28:33.230Z,991.3
2019-03-26T08:29:34.506Z,991.4
2019-03-26T08:30:35.940Z,991.4
2019-03-26T08:31:37.278Z,991.4
2019-03-26T08:32:38.546Z,991.4
2019-03-26T08:33:39.873Z,991.4
2019-03-26T08:34:41.586Z,991.4
2019-03-26T08:35:42.851Z,991.4
2019-03-26T08:36:44.134Z,991.5
2019-03-26T08:37:45.402Z,991.5
2019-03-26T08:38:46.740Z,991.6
2019-03-26T08:39:48.102Z,991.4
2019-03-26T08:40:49.466Z,991.6
2019-03-26T08:41:51.052Z,991.6
2019-03-26T08:42:52.294Z,991.6
2019-03-26T08:43:53.843Z,991.7
2019-03-26T08:44:57.511Z,991.6
2019-03-26T08:46:03.605Z,991.6
2019-03-26T08:47:04.878Z,991.5
2019-03-26T08:48:08.596Z,991.5
2019-03-26T08:49:09.883Z,991.5
2019-03-26T08:50:11.147Z,991.5
2019-03-26T08:51:15.104Z,991.4
2019-03-26T08:52:16.712Z,991.2
2019-03-26T08:53:18.006Z,991.4
2019-03-26T08:54:19.278Z,991.4
2019-03-26T08:55:20.802Z,991.5
2019-03-26T08:56:26.618Z,991.4
2019-03-26T08:57:30.701Z,991.5
2019-03-26T08:58:31.953Z,991.4
2019-03-26T08:59:33.226Z,991.4
2019-03-26T09:00:34.512Z,991.4
2019-03-26T09:01:35.760Z,991.5
2019-03-26T09:02:37.280Z,991.3
2019-03-26T09:03:39.819Z,991.3
2019-03-26T09:04:41.110Z,991.3
2019-03-26T09:05:42.376Z,991.3
2019-03-26T09:06:44.024Z,991.2
2019-03-26T09:07:45.279Z,991.3
2019-03-26T09:08:47.606Z,991.2
2019-03-26T09:09:48.893Z,991.2
2019-03-26T09:10:52.972Z,991.2
2019-03-26T09:11:54.235Z,991.3
2019-03-26T09:12:55.510Z,991.1
2019-03-26T09:13:56.787Z,991.2
2019-03-26T09:15:01.326Z,991.2
2019-03-26T09:16:02.580Z,991.1
2019-03-26T09:17:03.847Z,991.1
2019-03-26T09:18:06.129Z,991.2
2019-03-26T09:19:07.394Z,991.1
2019-03-26T09:20:08.718Z,991.2
2019-03-26T09:21:12.937Z,991.2
2019-03-26T09:22:16.732Z,991.2
2019-03-26T09:23:18.023Z,991.3
2019-03-26T09:24:19.404Z,991.2
2019-03-26T09:25:20.701Z,991.3
2019-03-26T09:26:22.588Z,991.2
2019-03-26T09:27:26.212Z,991.3
2019-03-26T09:28:27.483Z,991.1
2019-03-26T09:29:29.006Z,991
2019-03-26T09:30:30.279Z,991.2
2019-03-26T09:31:31.608Z,991.2
2019-03-26T09:32:32.888Z,991.2
2019-03-26T09:33:35.373Z,991.2
2019-03-26T09:34:38.832Z,991.3
2019-03-26T09:35:40.174Z,991.1
2019-03-26T09:36:41.449Z,991.1
2019-03-26T09:37:42.737Z,991.1
2019-03-26T09:38:43.997Z,991.1
2019-03-26T09:39:45.232Z,991.2
2019-03-26T09:40:46.528Z,991.1
2019-03-26T09:41:47.858Z,991.1
2019-03-26T09:42:49.099Z,990.9
2019-03-26T09:43:50.364Z,990.9
2019-03-26T09:44:51.761Z,990.9
2019-03-26T09:45:53.080Z,990.9
2019-03-26T09:46:54.532Z,990.9
2019-03-26T09:47:55.792Z,990.9
2019-03-26T09:48:57.080Z,990.8
2019-03-26T09:49:58.688Z,990.9
2019-03-26T09:51:00.296Z,990.9
2019-03-26T09:52:01.562Z,990.9
2019-03-26T09:53:05.269Z,990.9
2019-03-26T09:54:06.510Z,990.9
2019-03-26T09:55:11.232Z,990.9
2019-03-26T09:56:27.619Z,990.9
2019-03-26T09:57:29.524Z,991
2019-03-26T09:58:33.233Z,991
2019-03-26T09:59:34.741Z,990.9
2019-03-26T10:00:36.290Z,991
2019-03-26T10:01:37.691Z,990.9
2019-03-26T10:02:41.311Z,991
2019-03-26T10:03:44.151Z,990.9
2019-03-26T10:04:45.407Z,990.9
2019-03-26T10:05:52.914Z,990.8
2019-03-26T10:06:54.263Z,990.9
2019-03-26T10:07:55.866Z,990.6
2019-03-26T10:08:57.143Z,990.6
2019-03-26T10:09:58.421Z,990.6
2019-03-26T10:10:59.679Z,990.5
2019-03-26T10:12:00.953Z,990.5
2019-03-26T10:13:02.276Z,990.5
2019-03-26T10:14:04.829Z,990.5
2019-03-26T10:15:06.599Z,990.4
2019-03-26T10:16:11.245Z,990.5
2019-03-26T10:17:12.562Z,990.6
2019-03-26T10:18:13.819Z,990.6
2019-03-26T10:19:17.799Z,990.7
2019-03-26T10:20:19.037Z,990.8
2019-03-26T10:21:20.319Z,990.8
2019-03-26T10:22:22.495Z,990.8
2019-03-26T10:23:26.064Z,990.7
2019-03-26T10:24:27.343Z,990.7
2019-03-26T10:25:28.620Z,990.7
2019-03-26T10:26:29.873Z,990.7
2019-03-26T10:27:35.865Z,990.7
2019-03-26T10:28:37.379Z,990.7
2019-03-26T10:29:38.743Z,990.7
2019-03-26T10:30:42.449Z,990.6
2019-03-26T10:31:43.821Z,990.7
2019-03-26T10:32:45.260Z,990.7
2019-03-26T10:33:49.655Z,990.7
2019-03-26T10:34:56.645Z,990.7
2019-03-26T10:35:58.017Z,990.7
2019-03-26T10:36:59.277Z,990.8
2019-03-26T10:38:00.606Z,990.8
2019-03-26T10:39:06.277Z,990.8
2019-03-26T10:40:07.533Z,990.8
2019-03-26T10:41:08.795Z,990.6
2019-03-26T10:42:10.240Z,990.7
2019-03-26T10:43:11.812Z,990.7
2019-03-26T10:44:13.071Z,990.7
2019-03-26T10:45:14.625Z,990.6
2019-03-26T10:46:15.909Z,990.6
2019-03-26T10:47:24.719Z,990.6
2019-03-26T10:48:26.031Z,990.5
2019-03-26T10:49:27.585Z,990.5
2019-03-26T10:50:28.849Z,990.5
2019-03-26T10:51:30.710Z,990.4
2019-03-26T10:52:35.348Z,990.6
2019-03-26T10:53:41.731Z,990.6
2019-03-26T10:54:46.469Z,990.5
2019-03-26T10:55:49.915Z,990.6
2019-03-26T10:56:51.229Z,990.5
2019-03-26T10:57:54.941Z,990.5
2019-03-26T10:58:57.299Z,990.6
2019-03-26T11:00:01.302Z,990.5
2019-03-26T11:01:06.200Z,990.5
2019-03-26T11:02:07.481Z,990.5
2019-03-26T11:03:14.332Z,990.4
2019-03-26T11:04:17.019Z,990.4
2019-03-26T11:05:18.287Z,990.4
2019-03-26T11:06:20.891Z,990.4
2019-03-26T11:07:24.475Z,990.4
2019-03-26T11:08:28.123Z,990.3
2019-03-26T11:09:32.370Z,990.4
2019-03-26T11:10:33.613Z,990.4
2019-03-26T11:11:34.937Z,990.4
2019-03-26T11:12:36.327Z,990.4
2019-03-26T11:13:59.983Z,990.4
2019-03-26T11:15:01.618Z,990.4
2019-03-26T11:16:02.891Z,990.4
2019-03-26T11:17:05.401Z,990.4
2019-03-26T11:18:09.204Z,990.5
2019-03-26T11:19:10.469Z,990.5
2019-03-26T11:20:11.761Z,990.5
2019-03-26T11:21:13.013Z,990.4
2019-03-26T11:22:15.446Z,990.5
2019-03-26T11:23:18.215Z,990.4
2019-03-26T11:24:19.465Z,990.5
2019-03-26T11:25:21.875Z,990.4
2019-03-26T11:26:23.585Z,990.4
2019-03-26T11:27:26.185Z,990.4
2019-03-26T11:28:27.433Z,990.5
2019-03-26T11:29:28.774Z,990.5
2019-03-26T11:30:31.127Z,990.5
2019-03-26T11:31:35.277Z,990.5
2019-03-26T11:32:36.771Z,990.6
2019-03-26T11:33:38.043Z,990.5
2019-03-26T11:34:39.268Z,990.5
2019-03-26T11:35:40.680Z,990.5
2019-03-26T11:36:42.248Z,990.4
2019-03-26T11:37:43.513Z,990.4
2019-03-26T11:38:48.943Z,990.4
2019-03-26T11:39:50.202Z,990.4
2019-03-26T11:40:51.526Z,990.4
2019-03-26T11:41:52.806Z,990.4
2019-03-26T11:42:54.112Z,990.4
2019-03-26T11:43:55.738Z,990.4
2019-03-26T11:44:59.995Z,990.4
2019-03-26T11:46:01.294Z,990.4
2019-03-26T11:47:02.540Z,990.4
2019-03-26T11:48:03.817Z,990.4
2019-03-26T11:49:06.429Z,990.3
2019-03-26T11:50:07.680Z,990.4
2019-03-26T11:51:09.646Z,990.3
2019-03-26T11:52:10.893Z,990.4
2019-03-26T11:53:12.653Z,990.3
2019-03-26T11:54:14.226Z,990.3
2019-03-26T11:55:15.746Z,990.3
2019-03-26T11:56:17.071Z,990.2
2019-03-26T11:57:19.401Z,990.3
2019-03-26T11:58:32.150Z,990.2
2019-03-26T11:59:33.402Z,990.3
2019-03-26T12:00:34.705Z,990.3
2019-03-26T12:01:36.242Z,990.3
2019-03-26T12:02:37.741Z,990.4
2019-03-26T12:03:39.311Z,990.3
2019-03-26T12:04:40.589Z,990.3
2019-03-26T12:05:41.829Z,990.4
2019-03-26T12:06:43.153Z,990.3
2019-03-26T12:07:44.392Z,990.4
2019-03-26T12:08:45.636Z,990.3
2019-03-26T12:09:47.639Z,990.3
2019-03-26T12:10:52.308Z,990.3
2019-03-26T12:11:53.836Z,990.3
2019-03-26T12:12:55.096Z,990.3
2019-03-26T12:13:56.361Z,990.2
2019-03-26T12:14:57.672Z,990.3
2019-03-26T12:16:01.456Z,990.3
2019-03-26T12:17:07.399Z,990.3
2019-03-26T12:18:08.676Z,990.3
2019-03-26T12:19:10.072Z,990.3
2019-03-26T12:20:15.678Z,990.2
2019-03-26T12:21:16.954Z,990.1
2019-03-26T12:22:18.245Z,990.3
2019-03-26T12:23:19.745Z,990.3
2019-03-26T12:24:21.318Z,990.3
2019-03-26T12:25:22.874Z,990.2
2019-03-26T12:26:24.752Z,990.3
2019-03-26T12:27:29.280Z,990.2
2019-03-26T12:28:46.210Z,990.2
2019-03-26T12:29:47.478Z,990.1
2019-03-26T12:30:51.246Z,990.2
2019-03-26T12:31:52.802Z,990.2
2019-03-26T12:32:54.093Z,990.2
2019-03-26T12:33:55.328Z,990.3
2019-03-26T12:34:56.609Z,990.2
2019-03-26T12:35:58.146Z,990.2
2019-03-26T12:36:59.422Z,990.2
2019-03-26T12:38:00.751Z,990.3
2019-03-26T12:39:04.132Z,990.3
2019-03-26T12:40:05.426Z,990.2
2019-03-26T12:41:08.863Z,990.2
2019-03-26T12:42:10.132Z,990.2
2019-03-26T12:43:13.909Z,990.2
2019-03-26T12:44:17.384Z,990.2
2019-03-26T12:45:18.635Z,990.2
2019-03-26T12:46:21.502Z,990.2
2019-03-26T12:47:22.759Z,990.2
2019-03-26T12:48:25.180Z,990.2
2019-03-26T12:49:26.458Z,990.2
2019-03-26T12:50:27.719Z,990.1
2019-03-26T12:51:29.014Z,990.2
2019-03-26T12:52:30.530Z,990.2
2019-03-26T12:53:32.849Z,990
2019-03-26T12:54:35.586Z,990.2
2019-03-26T12:55:36.867Z,990.2
2019-03-26T12:56:38.562Z,990.2
2019-03-26T12:57:40.110Z,990.2
2019-03-26T12:58:41.599Z,990.2
2019-03-26T12:59:47.111Z,990.2
2019-03-26T13:00:48.687Z,990.2
2019-03-26T13:01:50.681Z,990.1
2019-03-26T13:02:54.769Z,990.2
2019-03-26T13:03:56.833Z,990.2
2019-03-26T13:04:58.079Z,990.1
2019-03-26T13:05:59.332Z,990.1
2019-03-26T13:07:00.963Z,990.2
2019-03-26T13:08:02.286Z,990.2
2019-03-26T13:09:03.636Z,990.2
2019-03-26T13:10:14.607Z,990.2
2019-03-26T13:11:17.968Z,990.1
2019-03-26T13:12:20.253Z,990.3
2019-03-26T13:13:21.514Z,990.2
2019-03-26T13:14:23.333Z,990.2
2019-03-26T13:15:24.581Z,990.2
2019-03-26T13:16:30.448Z,990.1
2019-03-26T13:17:34.157Z,990.2
2019-03-26T13:18:44.169Z,990.1
2019-03-26T13:19:45.519Z,990.1
2019-03-26T13:20:48.687Z,990.2